createdAt,value
2019-04-13T00:01:52.906Z,17.10
2019-04-13T00:04:33.719Z,19.17
2019-04-13T00:07:09.420Z,16.03
2019-04-13T00:09:42.441Z,16.10
2019-04-13T00:12:29.575Z,15.17
2019-04-13T00:15:02.835Z,16.43
2019-04-13T00:17:34.218Z,15.03
2019-04-13T00:20:07.396Z,16.30
2019-04-13T00:22:45.134Z,15.40
2019-04-13T00:25:18.184Z,11.97
2019-04-13T00:27:50.077Z,17.60
2019-04-13T00:30:25.456Z,16.20
2019-04-13T00:32:59.200Z,17.13
2019-04-13T00:35:33.050Z,17.20
2019-04-13T00:38:04.271Z,17.57
2019-04-13T00:40:36.018Z,13.40
2019-04-13T00:43:07.473Z,16.63
2019-04-13T00:45:39.229Z,14.70
2019-04-13T00:48:14.945Z,14.60
2019-04-13T00:50:48.967Z,18.60
2019-04-13T00:53:22.636Z,16.20
2019-04-13T00:55:57.481Z,13.13
2019-04-13T00:58:29.650Z,13.67
2019-04-13T01:01:01.078Z,15.43
2019-04-13T01:03:34.450Z,10.17
2019-04-13T01:06:11.565Z,16.73
2019-04-13T01:08:45.331Z,16.30
2019-04-13T01:11:19.965Z,16.07
2019-04-13T01:13:51.449Z,17.47
2019-04-13T01:16:27.400Z,17.50
2019-04-13T01:19:02.197Z,16.80
2019-04-13T01:21:39.566Z,23.03
2019-04-13T01:24:12.340Z,18.13
2019-04-13T01:26:46.425Z,17.90
2019-04-13T01:29:23.942Z,17.77
2019-04-13T01:31:56.350Z,19.83
2019-04-13T01:34:30.722Z,18.57
2019-04-13T01:37:04.200Z,16.70
2019-04-13T01:39:37.032Z,17.50
2019-04-13T01:42:13.733Z,21.10
2019-04-13T01:44:54.964Z,21.73
2019-04-13T01:47:26.218Z,20.63
2019-04-13T01:49:57.724Z,27.73
2019-04-13T01:52:31.905Z,24.60
2019-04-13T01:55:07.879Z,19.70
2019-04-13T02:00:51.209Z,20.50
2019-04-13T02:03:26.723Z,22.40
2019-04-13T02:06:04.656Z,25.17
2019-04-13T02:09:10.119Z,23.27
2019-04-13T02:11:42.363Z,23.53
2019-04-13T02:14:14.033Z,23.10
2019-04-13T02:16:53.308Z,22.57
2019-04-13T02:19:29.648Z,24.60
2019-04-13T02:22:03.037Z,26.23
2019-04-13T02:24:34.235Z,20.70
2019-04-13T02:27:09.279Z,26.00
2019-04-13T02:29:42.111Z,23.17
2019-04-13T02:32:13.326Z,27.17
2019-04-13T02:34:44.481Z,30.83
2019-04-13T02:37:18.664Z,26.30
2019-04-13T02:39:50.072Z,29.50
2019-04-13T02:42:23.956Z,28.13
2019-04-13T02:44:57.229Z,36.87
2019-04-13T02:47:28.046Z,33.97
2019-04-13T02:49:59.053Z,32.80
2019-04-13T02:52:34.024Z,40.43
2019-04-13T02:55:05.478Z,36.10
2019-04-13T02:57:45.589Z,35.53
2019-04-13T03:00:19.610Z,39.27
2019-04-13T03:02:56.720Z,40.47
2019-04-13T03:05:46.464Z,33.63
2019-04-13T03:08:21.191Z,39.53
2019-04-13T03:10:53.312Z,30.40
2019-04-13T03:13:29.150Z,25.60
2019-04-13T03:16:15.953Z,29.20
2019-04-13T03:19:09.118Z,33.20
2019-04-13T03:21:42.566Z,27.50
2019-04-13T03:24:13.986Z,24.60
2019-04-13T03:26:48.925Z,27.93
2019-04-13T03:29:20.090Z,28.70
2019-04-13T03:31:52.185Z,28.17
2019-04-13T03:34:23.920Z,22.60
2019-04-13T03:36:56.718Z,21.47
2019-04-13T03:39:29.283Z,19.20
2019-04-13T03:42:00.503Z,23.07
2019-04-13T03:44:32.348Z,19.70
2019-04-13T03:47:03.585Z,21.50
2019-04-13T03:49:37.506Z,20.27
2019-04-13T03:52:10.678Z,17.10
2019-04-13T03:54:41.927Z,17.10
2019-04-13T03:57:13.010Z,21.17
2019-04-13T03:59:44.528Z,21.80
2019-04-13T04:02:15.881Z,16.70
2019-04-13T04:04:47.120Z,18.00
2019-04-13T04:07:18.752Z,19.27
2019-04-13T04:09:54.133Z,15.87
2019-04-13T04:12:24.949Z,20.70
2019-04-13T04:15:00.613Z,19.93
2019-04-13T04:17:33.628Z,20.90
2019-04-13T04:20:07.712Z,18.30
2019-04-13T04:22:39.299Z,18.87
2019-04-13T04:25:13.076Z,16.30
2019-04-13T04:27:44.330Z,18.37
2019-04-13T04:30:15.807Z,16.93
2019-04-13T04:32:47.029Z,22.40
2019-04-13T04:35:18.755Z,18.23
2019-04-13T04:37:55.572Z,20.97
2019-04-13T04:40:27.011Z,19.37
2019-04-13T04:43:00.209Z,19.57
2019-04-13T04:45:31.654Z,17.30
2019-04-13T04:48:05.355Z,15.70
2019-04-13T04:50:39.278Z,18.70
2019-04-13T04:53:12.200Z,17.00
2019-04-13T04:55:43.952Z,21.60
2019-04-13T04:58:15.332Z,18.73
2019-04-13T05:00:50.966Z,20.10
2019-04-13T05:03:30.165Z,20.00
2019-04-13T05:06:02.731Z,19.90
2019-04-13T05:08:39.191Z,20.53
2019-04-13T05:11:13.211Z,17.27
2019-04-13T05:13:44.320Z,17.30
2019-04-13T05:16:16.978Z,20.60
2019-04-13T05:18:48.146Z,22.63
2019-04-13T05:21:20.643Z,20.00
2019-04-13T05:23:52.653Z,21.20
2019-04-13T05:26:28.743Z,24.20
2019-04-13T05:29:04.904Z,20.77
2019-04-13T05:31:44.986Z,22.73
2019-04-13T05:34:20.071Z,20.37
2019-04-13T05:36:55.828Z,19.50
2019-04-13T05:39:29.641Z,16.57
2019-04-13T05:42:03.412Z,22.43
2019-04-13T05:44:35.896Z,24.13
2019-04-13T05:47:12.024Z,19.53
2019-04-13T05:49:44.861Z,21.80
2019-04-13T05:52:16.261Z,23.63
2019-04-13T05:54:50.430Z,20.00
2019-04-13T05:57:23.178Z,30.47
2019-04-13T05:59:54.388Z,31.50
2019-04-13T06:02:25.784Z,25.03
2019-04-13T06:04:57.169Z,28.90
2019-04-13T06:07:29.090Z,26.07
2019-04-13T06:10:00.658Z,30.13
2019-04-13T06:12:32.388Z,26.80
2019-04-13T06:15:03.743Z,28.20
2019-04-13T06:17:38.164Z,34.70
2019-04-13T06:20:13.176Z,32.07
2019-04-13T06:22:47.703Z,32.43
2019-04-13T06:25:18.720Z,28.03
2019-04-13T06:27:53.150Z,31.23
2019-04-13T06:30:42.256Z,29.53
2019-04-13T06:33:40.049Z,32.00
2019-04-13T06:36:12.966Z,32.73
2019-04-13T06:38:48.645Z,33.10
2019-04-13T06:41:24.053Z,34.37
2019-04-13T06:43:58.571Z,34.70
2019-04-13T06:46:30.798Z,26.13
2019-04-13T06:49:06.769Z,33.83
2019-04-13T06:51:38.983Z,35.77
2019-04-13T06:54:13.405Z,33.47
2019-04-13T06:56:45.332Z,32.70
2019-04-13T06:59:16.959Z,33.47
2019-04-13T07:01:50.232Z,30.70
2019-04-13T07:04:21.426Z,36.63
2019-04-13T07:06:52.861Z,31.93
2019-04-13T07:09:26.643Z,30.70
2019-04-13T07:12:20.458Z,34.23
2019-04-13T07:14:55.759Z,34.80
2019-04-13T07:17:32.491Z,29.90
2019-04-13T07:20:03.812Z,29.03
2019-04-13T07:22:38.374Z,32.83
2019-04-13T07:25:10.767Z,30.10
2019-04-13T07:27:42.414Z,34.57
2019-04-13T07:30:16.680Z,31.33
2019-04-13T07:32:47.997Z,34.07
2019-04-13T07:35:21.761Z,36.50
2019-04-13T07:37:52.798Z,34.40
2019-04-13T07:40:43.081Z,37.93
2019-04-13T07:43:34.477Z,36.10
2019-04-13T07:46:30.089Z,38.90
2019-04-13T07:49:26.697Z,36.87
2019-04-13T07:52:39.059Z,36.00
2019-04-13T07:55:19.184Z,32.67
2019-04-13T07:57:58.366Z,29.63
2019-04-13T08:00:37.708Z,32.03
2019-04-13T08:03:18.119Z,31.10
2019-04-13T08:05:54.115Z,25.40
2019-04-13T08:08:38.894Z,31.50
2019-04-13T08:10:58.304Z,35.50
2019-04-13T08:13:29.314Z,29.83
2019-04-13T08:16:00.321Z,29.63
2019-04-13T08:18:56.160Z,39.93
2019-04-13T08:21:33.445Z,29.53
2019-04-13T08:24:04.989Z,26.70
2019-04-13T08:26:35.963Z,31.87
2019-04-13T08:29:07.136Z,30.87
2019-04-13T08:31:41.190Z,28.40
2019-04-13T08:34:12.076Z,32.97
2019-04-13T08:36:43.030Z,29.27
2019-04-13T08:39:14.311Z,27.80
2019-04-13T08:41:45.940Z,25.40
2019-04-13T08:44:18.462Z,29.50
2019-04-13T08:46:51.992Z,29.83
2019-04-13T08:49:23.208Z,24.27
2019-04-13T08:51:56.833Z,24.00
2019-04-13T08:54:27.850Z,27.93
2019-04-13T08:56:58.822Z,30.60
2019-04-13T08:59:32.204Z,25.83
2019-04-13T09:02:05.086Z,24.63
2019-04-13T09:04:36.151Z,22.27
2019-04-13T09:07:09.910Z,25.13
2019-04-13T09:09:41.516Z,22.70
2019-04-13T09:12:14.052Z,23.47
2019-04-13T09:14:45.016Z,24.00
2019-04-13T09:17:20.482Z,24.70
2019-04-13T09:19:57.443Z,21.10
2019-04-13T09:22:28.304Z,22.53
2019-04-13T09:24:59.498Z,22.23
2019-04-13T09:27:30.381Z,20.30
2019-04-13T09:30:01.266Z,15.40
2019-04-13T09:32:32.240Z,20.73
2019-04-13T09:35:03.134Z,18.73
2019-04-13T09:37:33.770Z,18.20
2019-04-13T09:40:04.552Z,18.77
2019-04-13T09:42:35.431Z,18.07
2019-04-13T09:45:06.562Z,17.73
2019-04-13T09:47:41.981Z,18.50
2019-04-13T09:50:10.037Z,20.27
2019-04-13T09:52:44.117Z,17.90
2019-04-13T09:55:15.945Z,16.40
2019-04-13T09:57:47.442Z,19.67
2019-04-13T10:00:18.689Z,20.30
2019-04-13T10:02:49.620Z,20.23
2019-04-13T10:05:23.228Z,18.70
2019-04-13T10:07:54.218Z,26.63
2019-04-13T10:10:25.241Z,19.30
2019-04-13T10:13:01.526Z,21.43
2019-04-13T10:15:41.647Z,20.93
2019-04-13T10:18:22.305Z,20.27
2019-04-13T10:20:53.161Z,24.20
2019-04-13T10:23:27.401Z,24.00
2019-04-13T10:26:04.473Z,22.77
2019-04-13T10:28:37.175Z,24.97
2019-04-13T10:31:10.846Z,20.63
2019-04-13T10:33:41.978Z,26.63
2019-04-13T10:36:12.844Z,27.27
2019-04-13T10:38:45.381Z,27.60
2019-04-13T10:41:17.546Z,22.80
2019-04-13T10:43:50.265Z,25.53
2019-04-13T10:46:45.093Z,24.63
2019-04-13T10:49:44.090Z,25.30
2019-04-13T10:52:24.595Z,27.03
2019-04-13T10:54:57.138Z,24.47
2019-04-13T10:57:32.266Z,22.67
2019-04-13T11:00:03.173Z,22.97
2019-04-13T11:02:33.817Z,24.60
2019-04-13T11:05:05.194Z,26.90
2019-04-13T11:07:36.093Z,24.03
2019-04-13T11:10:07.675Z,23.47
2019-04-13T11:12:38.870Z,29.20
2019-04-13T11:15:10.181Z,27.13
2019-04-13T11:17:41.017Z,21.10
2019-04-13T11:20:14.626Z,31.00
2019-04-13T11:22:44.533Z,26.33
2019-04-13T11:25:15.548Z,29.63
2019-04-13T11:27:46.290Z,28.50
2019-04-13T11:30:17.451Z,33.03
2019-04-13T11:32:51.189Z,24.80
2019-04-13T11:35:22.138Z,25.70
2019-04-13T11:37:52.890Z,26.83
2019-04-13T11:40:26.008Z,27.00
2019-04-13T11:43:25.146Z,28.70
2019-04-13T11:46:05.041Z,25.83
2019-04-13T11:48:45.681Z,26.23
2019-04-13T11:51:24.018Z,25.97
2019-04-13T11:53:55.150Z,28.87
2019-04-13T11:56:28.859Z,24.97
2019-04-13T11:59:02.797Z,28.77
2019-04-13T12:01:47.728Z,31.53
2019-04-13T12:04:35.990Z,34.57
2019-04-13T12:07:32.059Z,31.83
2019-04-13T12:10:22.156Z,44.10
2019-04-13T12:13:17.918Z,38.27
2019-04-13T12:16:20.074Z,37.53
2019-04-13T12:19:17.600Z,41.37
2019-04-13T12:21:59.435Z,33.23
2019-04-13T12:24:31.831Z,36.30
2019-04-13T12:27:03.016Z,37.23
2019-04-13T12:29:38.558Z,30.27
2019-04-13T12:32:23.822Z,28.43
2019-04-13T12:34:53.095Z,29.07
2019-04-13T12:37:26.360Z,26.00
2019-04-13T12:40:04.093Z,25.00
2019-04-13T12:42:34.854Z,28.20
2019-04-13T12:45:05.973Z,23.87
2019-04-13T12:47:36.933Z,29.67
2019-04-13T12:50:08.403Z,25.47
2019-04-13T12:52:39.813Z,34.43
2019-04-13T12:55:14.060Z,26.40
2019-04-13T12:57:43.231Z,24.90
2019-04-13T13:00:25.949Z,24.87
2019-04-13T13:02:56.783Z,24.90
2019-04-13T13:05:30.066Z,21.73
2019-04-13T13:08:02.094Z,24.80
2019-04-13T13:10:32.791Z,26.27
2019-04-13T13:13:03.631Z,27.53
2019-04-13T13:15:36.150Z,24.37
2019-04-13T13:18:09.158Z,32.07
2019-04-13T13:20:40.067Z,28.83
2019-04-13T13:23:12.543Z,20.77
2019-04-13T13:25:43.421Z,20.93
2019-04-13T13:28:14.045Z,22.13
2019-04-13T13:30:44.704Z,20.73
2019-04-13T13:33:15.420Z,23.80
2019-04-13T13:35:46.093Z,22.67
2019-04-13T13:38:18.050Z,21.90
2019-04-13T13:40:49.468Z,16.27
2019-04-13T13:43:20.225Z,17.10
2019-04-13T13:45:50.963Z,17.10
2019-04-13T13:48:22.120Z,21.90
2019-04-13T13:50:56.261Z,17.40
2019-04-13T13:53:28.513Z,20.33
2019-04-13T13:55:59.225Z,20.20
2019-04-13T13:58:34.804Z,18.67
2019-04-13T14:01:19.278Z,19.47
2019-04-13T14:03:50.604Z,19.00
2019-04-13T14:06:21.830Z,18.50
2019-04-13T14:08:52.745Z,17.80
2019-04-13T14:11:23.332Z,21.50
2019-04-13T14:13:54.377Z,21.23
2019-04-13T14:16:25.528Z,18.07
2019-04-13T14:18:57.472Z,21.27
2019-04-13T14:21:28.784Z,28.17
2019-04-13T14:23:59.678Z,19.57
2019-04-13T14:26:33.511Z,22.10
2019-04-13T14:29:10.469Z,27.57
2019-04-13T14:31:39.272Z,29.37
2019-04-13T14:34:11.280Z,24.03
2019-04-13T14:36:42.129Z,21.97
2019-04-13T14:39:12.786Z,23.03
2019-04-13T14:41:43.677Z,17.13
2019-04-13T14:44:14.568Z,17.03
2019-04-13T14:46:45.409Z,14.90
2019-04-13T14:49:16.179Z,14.07
2019-04-13T14:51:46.830Z,13.30
2019-04-13T14:54:19.599Z,16.27
2019-04-13T14:56:50.099Z,19.30
2019-04-13T14:59:20.777Z,14.57
2019-04-13T15:01:51.669Z,17.00
2019-04-13T15:04:22.261Z,18.80
2019-04-13T15:06:54.865Z,29.40
2019-04-13T15:09:25.716Z,18.67
2019-04-13T15:11:56.474Z,21.20
2019-04-13T15:14:28.148Z,34.47
2019-04-13T15:17:04.551Z,26.83
2019-04-13T15:19:41.406Z,33.60
2019-04-13T15:22:11.528Z,19.87
2019-04-13T15:24:39.736Z,14.33
2019-04-13T15:27:10.459Z,27.70
2019-04-13T15:29:41.723Z,14.70
2019-04-13T15:32:12.796Z,18.80
2019-04-13T15:34:44.671Z,14.10
2019-04-13T15:37:15.424Z,13.97
2019-04-13T15:39:48.897Z,16.23
2019-04-13T15:42:24.349Z,14.83
2019-04-13T15:44:54.378Z,15.13
2019-04-13T15:47:28.751Z,13.63
2019-04-13T15:50:00.925Z,16.57
2019-04-13T15:52:32.688Z,17.13
2019-04-13T15:55:05.118Z,21.57
2019-04-13T15:57:37.264Z,24.60
2019-04-13T16:00:09.072Z,25.50
2019-04-13T16:02:42.920Z,19.17
2019-04-13T16:05:13.961Z,16.33
2019-04-13T16:07:46.747Z,17.43
2019-04-13T16:10:35.734Z,15.60
2019-04-13T16:13:09.357Z,15.97
2019-04-13T16:15:41.010Z,30.50
2019-04-13T16:18:15.379Z,28.60
2019-04-13T16:20:49.407Z,33.47
2019-04-13T16:23:23.767Z,18.00
2019-04-13T16:25:59.376Z,23.00
2019-04-13T16:28:37.208Z,20.80
2019-04-13T16:31:22.516Z,16.03
2019-04-13T16:34:00.815Z,13.50
2019-04-13T16:36:38.354Z,13.20
2019-04-13T16:39:15.239Z,14.63
2019-04-13T16:41:55.150Z,16.83
2019-04-13T16:44:23.146Z,20.33
2019-04-13T16:46:59.428Z,31.03
2019-04-13T16:49:55.106Z,45.60
2019-04-13T16:52:38.727Z,25.60
2019-04-13T16:55:37.341Z,23.67
2019-04-13T16:58:30.115Z,25.03
2019-04-13T17:01:23.241Z,41.33
2019-04-13T17:04:15.760Z,17.00
2019-04-13T17:06:48.201Z,21.40
2019-04-13T17:09:19.045Z,19.10
2019-04-13T17:11:50.554Z,33.63
2019-04-13T17:14:22.585Z,36.80
2019-04-13T17:16:53.389Z,24.97
2019-04-13T17:19:42.685Z,14.17
2019-04-13T17:22:28.401Z,18.27
2019-04-13T17:25:05.969Z,17.83
2019-04-13T17:28:06.070Z,19.20
2019-04-13T17:30:53.937Z,21.57
2019-04-13T17:33:33.723Z,20.23
2019-04-13T17:36:06.296Z,24.37
2019-04-13T17:38:37.571Z,19.23
2019-04-13T17:41:19.499Z,27.80
2019-04-13T17:44:06.340Z,22.87
2019-04-13T17:46:59.457Z,16.20
2019-04-13T17:49:48.578Z,17.93
2019-04-13T17:52:32.795Z,17.80
2019-04-13T17:55:23.264Z,16.70
2019-04-13T17:58:10.395Z,17.57
2019-04-13T18:01:04.058Z,16.20
2019-04-13T18:03:53.769Z,17.17
2019-04-13T18:06:42.966Z,16.23
2019-04-13T18:09:33.566Z,22.43
2019-04-13T18:12:41.546Z,17.00
2019-04-13T18:15:09.962Z,18.37
2019-04-13T18:17:59.910Z,19.57
2019-04-13T18:20:32.124Z,18.07
2019-04-13T18:23:04.621Z,19.80
2019-04-13T18:25:45.778Z,20.47
2019-04-13T18:28:11.061Z,18.00
2019-04-13T18:30:45.460Z,17.97
2019-04-13T18:33:16.411Z,20.47
2019-04-13T18:35:47.776Z,16.10
2019-04-13T18:38:21.034Z,19.03
2019-04-13T18:40:53.963Z,21.43
2019-04-13T18:43:29.708Z,18.80
2019-04-13T18:46:01.921Z,18.33
2019-04-13T18:48:33.964Z,19.63
2019-04-13T18:51:04.857Z,25.20
2019-04-13T18:53:39.075Z,27.80
2019-04-13T18:56:08.420Z,33.33
2019-04-13T18:58:39.603Z,32.40
2019-04-13T19:01:11.542Z,19.93
2019-04-13T19:03:42.738Z,25.57
2019-04-13T19:06:13.418Z,25.63
2019-04-13T19:08:44.221Z,20.23
2019-04-13T19:11:15.621Z,21.43
2019-04-13T19:13:46.518Z,24.67
2019-04-13T19:16:17.333Z,27.43
2019-04-13T19:18:49.126Z,26.33
2019-04-13T19:21:22.875Z,30.10
2019-04-13T19:23:55.047Z,18.73
2019-04-13T19:26:28.236Z,17.17
2019-04-13T19:28:59.070Z,15.20
2019-04-13T19:31:30.860Z,19.57
2019-04-13T19:34:02.984Z,20.00
2019-04-13T19:36:33.689Z,19.57
2019-04-13T19:39:06.564Z,21.07
2019-04-13T19:41:37.238Z,17.40
2019-04-13T19:44:11.116Z,19.07
2019-04-13T19:46:42.230Z,20.10
2019-04-13T19:49:15.013Z,19.00
2019-04-13T19:51:55.115Z,18.10
2019-04-13T19:54:27.482Z,20.33
2019-04-13T19:56:58.132Z,19.77
2019-04-13T19:59:28.969Z,19.90
2019-04-13T20:01:59.750Z,19.53
2019-04-13T20:04:30.690Z,19.90
2019-04-13T20:07:01.342Z,20.17
2019-04-13T20:09:31.910Z,21.10
2019-04-13T20:12:02.539Z,27.53
2019-04-13T20:14:33.195Z,23.97
2019-04-13T20:17:06.526Z,28.17
2019-04-13T20:19:36.317Z,20.77
2019-04-13T20:22:06.976Z,25.80
2019-04-13T20:24:37.572Z,27.07
2019-04-13T20:27:08.863Z,19.90
2019-04-13T20:29:40.307Z,25.10
2019-04-13T20:32:12.335Z,26.70
2019-04-13T20:34:44.386Z,22.67
2019-04-13T20:37:15.149Z,25.27
2019-04-13T20:39:52.616Z,26.40
2019-04-13T20:42:26.384Z,28.10
2019-04-13T20:44:58.238Z,25.90
2019-04-13T20:47:29.046Z,22.93
2019-04-13T20:50:00.374Z,25.63
2019-04-13T20:52:31.096Z,28.50
2019-04-13T20:55:02.525Z,26.50
2019-04-13T20:57:34.898Z,27.43
2019-04-13T21:00:07.485Z,23.90
2019-04-13T21:02:39.559Z,35.50
2019-04-13T21:05:10.536Z,20.30
2019-04-13T21:07:42.354Z,22.20
2019-04-13T21:10:13.139Z,21.00
2019-04-13T21:12:43.793Z,15.30
2019-04-13T21:15:14.452Z,24.80
2019-04-13T21:17:46.404Z,21.70
2019-04-13T21:20:18.548Z,24.97
2019-04-13T21:22:50.687Z,26.23
2019-04-13T21:25:21.408Z,23.97
2019-04-13T21:27:53.127Z,27.73
2019-04-13T21:30:25.037Z,20.40
2019-04-13T21:32:55.898Z,20.50
2019-04-13T21:35:27.423Z,21.87
2019-04-13T21:37:59.401Z,30.63
2019-04-13T21:40:30.388Z,22.77
2019-04-13T21:43:02.050Z,35.33
2019-04-13T21:45:33.976Z,29.43
2019-04-13T21:48:04.990Z,30.23
2019-04-13T21:50:54.415Z,26.60
2019-04-13T21:53:39.925Z,25.03
2019-04-13T21:56:12.285Z,19.63
2019-04-13T21:58:46.982Z,22.77
2019-04-13T22:01:38.848Z,26.93
2019-04-13T22:04:10.914Z,29.90
2019-04-13T22:06:43.214Z,29.77
2019-04-13T22:09:15.309Z,34.67
2019-04-13T22:11:52.476Z,32.37
2019-04-13T22:14:36.146Z,29.53
2019-04-13T22:16:56.484Z,26.80
2019-04-13T22:19:27.280Z,27.10
2019-04-13T22:21:59.031Z,25.47
2019-04-13T22:24:30.943Z,26.27
2019-04-13T22:27:01.797Z,25.13
2019-04-13T22:29:55.243Z,25.30
2019-04-13T22:32:45.069Z,34.27
2019-04-13T22:35:24.342Z,37.30
2019-04-13T22:37:55.970Z,30.77
2019-04-13T22:40:30.048Z,24.07
2019-04-13T22:43:00.857Z,25.53
2019-04-13T22:45:34.061Z,23.30
2019-04-13T22:48:15.998Z,24.90
2019-04-13T22:51:09.875Z,23.90
2019-04-13T22:54:03.762Z,24.43
2019-04-13T22:56:41.913Z,32.57
2019-04-13T22:59:13.955Z,26.33
2019-04-13T23:01:50.921Z,23.37
2019-04-13T23:04:21.628Z,29.00
2019-04-13T23:06:53.125Z,30.53
2019-04-13T23:09:23.801Z,26.17
2019-04-13T23:11:54.747Z,27.97
2019-04-13T23:14:26.551Z,24.43
2019-04-13T23:16:58.468Z,29.33
2019-04-13T23:19:30.685Z,26.53
2019-04-13T23:22:01.747Z,26.63
2019-04-13T23:24:36.315Z,25.23
2019-04-13T23:27:09.251Z,26.50
2019-04-13T23:29:41.136Z,32.07
2019-04-13T23:32:12.016Z,32.50
2019-04-13T23:34:42.801Z,29.80
2019-04-13T23:37:13.412Z,31.50
2019-04-13T23:39:45.251Z,29.53
2019-04-13T23:42:16.081Z,41.63
2019-04-13T23:44:48.637Z,29.83
2019-04-13T23:47:20.882Z,30.73
2019-04-13T23:49:57.288Z,32.13
2019-04-13T23:52:28.259Z,32.70
2019-04-13T23:54:59.172Z,33.30
2019-04-13T23:57:42.113Z,33.23
